sensor_id;sensor_type;location;lat;lon;timestamp;P1;durP1;ratioP1;P2;durP2;ratioP2
9526;SDS011;4802;51.494;6.770;2022-12-18T00:01:30;6.60;;;5.87;;
9526;SDS011;4802;51.494;6.770;2022-12-18T00:04:06;8.03;;;5.70;;
9526;SDS011;4802;51.494;6.770;2022-12-18T01:01:03;7.67;;;5.90;;
9526;SDS011;4802;51.494;6.770;2022-12-18T01:03:33;4.33;;;3.97;;
9526;SDS011;4802;51.494;6.770;2022-12-18T01:06:05;10.33;;;4.10;;
9526;SDS011;4802;51.494;6.770;2022-12-18T01:08:35;3.50;;;3.30;;
9526;SDS011;4802;51.494;6.770;2022-12-18T01:11:07;6.30;;;5.80;;
9526;SDS011;4802;51.494;6.770;2022-12-18T01:13:37;5.47;;;5.00;;
9526;SDS011;4802;51.494;6.770;2022-12-18T01:16:10;6.60;;;5.63;;
9526;SDS011;4802;51.494;6.770;2022-12-18T01:18:40;15.53;;;9.57;;
9526;SDS011;4802;51.494;6.770;2022-12-18T01:21:09;8.20;;;7.47;;
9526;SDS011;4802;51.494;6.770;2022-12-18T01:23:43;5.17;;;4.73;;
9526;SDS011;4802;51.494;6.770;2022-12-18T01:26:14;5.73;;;4.63;;
9526;SDS011;4802;51.494;6.770;2022-12-18T01:28:44;5.53;;;5.20;;
9526;SDS011;4802;51.494;6.770;2022-12-18T01:31:16;11.20;;;7.70;;
9526;SDS011;4802;51.494;6.770;2022-12-18T01:33:48;7.10;;;6.00;;
9526;SDS011;4802;51.494;6.770;2022-12-18T01:36:18;7.77;;;6.90;;
9526;SDS011;4802;51.494;6.770;2022-12-18T01:38:49;14.63;;;7.00;;
9526;SDS011;4802;51.494;6.770;2022-12-18T01:41:19;6.03;;;5.40;;
9526;SDS011;4802;51.494;6.770;2022-12-18T01:43:50;11.13;;;9.00;;
9526;SDS011;4802;51.494;6.770;2022-12-18T01:46:21;15.60;;;8.63;;
9526;SDS011;4802;51.494;6.770;2022-12-18T01:48:55;15.07;;;10.60;;
9526;SDS011;4802;51.494;6.770;2022-12-18T01:51:25;12.47;;;10.83;;
9526;SDS011;4802;51.494;6.770;2022-12-18T01:53:56;16.60;;;9.87;;
9526;SDS011;4802;51.494;6.770;2022-12-18T01:56:28;13.97;;;9.03;;
9526;SDS011;4802;51.494;6.770;2022-12-18T01:58:59;13.37;;;11.10;;
9526;SDS011;4802;51.494;6.770;2022-12-18T02:01:32;13.73;;;10.60;;
9526;SDS011;4802;51.494;6.770;2022-12-18T02:04:14;26.73;;;10.20;;
9526;SDS011;4802;51.494;6.770;2022-12-18T02:06:50;17.33;;;12.63;;
9526;SDS011;4802;51.494;6.770;2022-12-18T02:09:24;14.53;;;9.77;;
9526;SDS011;4802;51.494;6.770;2022-12-18T02:11:56;12.23;;;10.17;;
9526;SDS011;4802;51.494;6.770;2022-12-18T02:14:31;24.17;;;13.33;;
9526;SDS011;4802;51.494;6.770;2022-12-18T02:17:06;18.20;;;14.07;;
9526;SDS011;4802;51.494;6.770;2022-12-18T02:19:39;15.50;;;10.83;;
9526;SDS011;4802;51.494;6.770;2022-12-18T02:22:13;25.83;;;13.63;;
9526;SDS011;4802;51.494;6.770;2022-12-18T02:24:45;14.10;;;10.90;;
9526;SDS011;4802;51.494;6.770;2022-12-18T02:27:25;14.97;;;11.37;;
9526;SDS011;4802;51.494;6.770;2022-12-18T02:29:55;18.97;;;11.20;;
9526;SDS011;4802;51.494;6.770;2022-12-18T02:32:26;18.80;;;13.50;;
9526;SDS011;4802;51.494;6.770;2022-12-18T02:34:56;21.70;;;12.80;;
9526;SDS011;4802;51.494;6.770;2022-12-18T02:37:26;22.10;;;13.53;;
9526;SDS011;4802;51.494;6.770;2022-12-18T02:39:58;19.83;;;12.70;;
9526;SDS011;4802;51.494;6.770;2022-12-18T02:42:30;31.33;;;13.93;;
9526;SDS011;4802;51.494;6.770;2022-12-18T02:44:59;24.23;;;15.17;;
9526;SDS011;4802;51.494;6.770;2022-12-18T02:47:32;28.10;;;12.70;;
9526;SDS011;4802;51.494;6.770;2022-12-18T02:50:05;18.03;;;11.53;;
9526;SDS011;4802;51.494;6.770;2022-12-18T02:52:39;33.10;;;13.97;;
9526;SDS011;4802;51.494;6.770;2022-12-18T02:55:17;15.23;;;10.80;;
9526;SDS011;4802;51.494;6.770;2022-12-18T02:57:50;31.80;;;13.10;;
9526;SDS011;4802;51.494;6.770;2022-12-18T03:00:23;17.40;;;11.83;;
9526;SDS011;4802;51.494;6.770;2022-12-18T03:02:53;10.80;;;9.67;;
9526;SDS011;4802;51.494;6.770;2022-12-18T03:05:28;22.60;;;13.50;;
9526;SDS011;4802;51.494;6.770;2022-12-18T03:08:01;18.53;;;8.30;;
9526;SDS011;4802;51.494;6.770;2022-12-18T03:10:34;37.97;;;15.27;;
9526;SDS011;4802;51.494;6.770;2022-12-18T03:13:08;9.00;;;8.10;;
9526;SDS011;4802;51.494;6.770;2022-12-18T03:15:40;17.97;;;9.00;;
9526;SDS011;4802;51.494;6.770;2022-12-18T03:18:13;17.80;;;10.20;;
9526;SDS011;4802;51.494;6.770;2022-12-18T03:20:44;19.73;;;8.80;;
9526;SDS011;4802;51.494;6.770;2022-12-18T03:23:19;12.37;;;8.50;;
9526;SDS011;4802;51.494;6.770;2022-12-18T03:25:52;14.47;;;10.50;;
9526;SDS011;4802;51.494;6.770;2022-12-18T03:28:28;23.13;;;10.80;;
9526;SDS011;4802;51.494;6.770;2022-12-18T03:30:59;11.97;;;8.23;;
9526;SDS011;4802;51.494;6.770;2022-12-18T03:33:32;22.57;;;9.50;;
9526;SDS011;4802;51.494;6.770;2022-12-18T03:36:05;16.00;;;12.77;;
9526;SDS011;4802;51.494;6.770;2022-12-18T03:38:36;13.83;;;10.40;;
9526;SDS011;4802;51.494;6.770;2022-12-18T03:41:06;20.97;;;12.50;;
9526;SDS011;4802;51.494;6.770;2022-12-18T03:43:43;13.27;;;10.97;;
9526;SDS011;4802;51.494;6.770;2022-12-18T03:46:15;20.40;;;12.07;;
9526;SDS011;4802;51.494;6.770;2022-12-18T03:48:46;21.63;;;11.83;;
9526;SDS011;4802;51.494;6.770;2022-12-18T03:51:17;12.60;;;9.80;;
9526;SDS011;4802;51.494;6.770;2022-12-18T03:53:49;8.10;;;7.30;;
9526;SDS011;4802;51.494;6.770;2022-12-18T03:56:22;18.67;;;10.83;;
9526;SDS011;4802;51.494;6.770;2022-12-18T03:58:56;11.03;;;9.03;;
9526;SDS011;4802;51.494;6.770;2022-12-18T04:01:29;17.90;;;12.40;;
9526;SDS011;4802;51.494;6.770;2022-12-18T04:04:00;19.63;;;11.93;;
9526;SDS011;4802;51.494;6.770;2022-12-18T04:06:31;15.40;;;9.23;;
9526;SDS011;4802;51.494;6.770;2022-12-18T04:09:06;15.80;;;10.47;;
9526;SDS011;4802;51.494;6.770;2022-12-18T04:11:35;16.73;;;10.03;;
9526;SDS011;4802;51.494;6.770;2022-12-18T04:14:12;27.57;;;9.70;;
9526;SDS011;4802;51.494;6.770;2022-12-18T04:16:43;13.33;;;10.97;;
9526;SDS011;4802;51.494;6.770;2022-12-18T04:19:13;10.13;;;8.97;;
9526;SDS011;4802;51.494;6.770;2022-12-18T04:21:43;9.60;;;7.70;;
9526;SDS011;4802;51.494;6.770;2022-12-18T04:24:12;9.10;;;8.13;;
9526;SDS011;4802;51.494;6.770;2022-12-18T04:26:41;17.23;;;7.93;;
9526;SDS011;4802;51.494;6.770;2022-12-18T04:29:12;15.60;;;9.03;;
9526;SDS011;4802;51.494;6.770;2022-12-18T04:31:42;12.80;;;9.00;;
9526;SDS011;4802;51.494;6.770;2022-12-18T04:34:12;14.90;;;6.57;;
9526;SDS011;4802;51.494;6.770;2022-12-18T04:36:41;5.13;;;4.73;;
9526;SDS011;4802;51.494;6.770;2022-12-18T04:39:10;10.27;;;9.37;;
9526;SDS011;4802;51.494;6.770;2022-12-18T04:41:40;18.10;;;8.80;;
9526;SDS011;4802;51.494;6.770;2022-12-18T04:44:13;9.07;;;7.83;;
9526;SDS011;4802;51.494;6.770;2022-12-18T04:46:42;15.63;;;7.37;;
9526;SDS011;4802;51.494;6.770;2022-12-18T04:49:13;12.70;;;7.80;;
9526;SDS011;4802;51.494;6.770;2022-12-18T04:51:44;7.97;;;7.23;;
9526;SDS011;4802;51.494;6.770;2022-12-18T04:54:16;12.23;;;7.00;;
9526;SDS011;4802;51.494;6.770;2022-12-18T04:56:48;14.50;;;11.20;;
9526;SDS011;4802;51.494;6.770;2022-12-18T04:59:25;12.50;;;7.30;;
9526;SDS011;4802;51.494;6.770;2022-12-18T05:01:56;7.70;;;6.87;;
9526;SDS011;4802;51.494;6.770;2022-12-18T05:04:27;9.27;;;7.37;;
9526;SDS011;4802;51.494;6.770;2022-12-18T05:06:57;10.27;;;8.30;;
9526;SDS011;4802;51.494;6.770;2022-12-18T05:09:29;12.93;;;11.77;;
9526;SDS011;4802;51.494;6.770;2022-12-18T05:11:58;15.33;;;11.40;;
9526;SDS011;4802;51.494;6.770;2022-12-18T05:14:31;12.67;;;11.27;;
9526;SDS011;4802;51.494;6.770;2022-12-18T05:17:01;10.47;;;7.80;;
9526;SDS011;4802;51.494;6.770;2022-12-18T05:19:29;16.50;;;10.50;;
9526;SDS011;4802;51.494;6.770;2022-12-18T05:21:59;11.10;;;9.83;;
9526;SDS011;4802;51.494;6.770;2022-12-18T05:24:27;15.63;;;9.90;;
9526;SDS011;4802;51.494;6.770;2022-12-18T05:26:57;16.93;;;9.07;;
9526;SDS011;4802;51.494;6.770;2022-12-18T05:29:27;15.87;;;10.77;;
9526;SDS011;4802;51.494;6.770;2022-12-18T05:31:58;12.70;;;11.50;;
9526;SDS011;4802;51.494;6.770;2022-12-18T05:34:28;18.73;;;11.50;;
9526;SDS011;4802;51.494;6.770;2022-12-18T05:36:58;15.03;;;11.23;;
9526;SDS011;4802;51.494;6.770;2022-12-18T05:39:27;14.53;;;10.50;;
9526;SDS011;4802;51.494;6.770;2022-12-18T05:41:57;15.60;;;8.43;;
9526;SDS011;4802;51.494;6.770;2022-12-18T05:44:27;22.93;;;8.13;;
9526;SDS011;4802;51.494;6.770;2022-12-18T05:47:01;12.00;;;9.17;;
9526;SDS011;4802;51.494;6.770;2022-12-18T05:49:31;12.23;;;11.10;;
9526;SDS011;4802;51.494;6.770;2022-12-18T05:52:00;11.43;;;8.10;;
9526;SDS011;4802;51.494;6.770;2022-12-18T05:54:29;13.67;;;12.30;;
9526;SDS011;4802;51.494;6.770;2022-12-18T05:57:03;17.53;;;11.13;;
9526;SDS011;4802;51.494;6.770;2022-12-18T05:59:33;12.07;;;9.27;;
9526;SDS011;4802;51.494;6.770;2022-12-18T06:02:05;13.73;;;10.00;;
9526;SDS011;4802;51.494;6.770;2022-12-18T06:04:34;16.80;;;11.27;;
9526;SDS011;4802;51.494;6.770;2022-12-18T06:07:06;12.37;;;10.60;;
9526;SDS011;4802;51.494;6.770;2022-12-18T06:09:36;15.80;;;11.60;;
9526;SDS011;4802;51.494;6.770;2022-12-18T06:12:06;16.50;;;9.83;;
9526;SDS011;4802;51.494;6.770;2022-12-18T06:14:35;8.60;;;7.87;;
9526;SDS011;4802;51.494;6.770;2022-12-18T06:17:07;15.90;;;10.43;;
9526;SDS011;4802;51.494;6.770;2022-12-18T06:19:36;18.23;;;11.43;;
9526;SDS011;4802;51.494;6.770;2022-12-18T06:22:07;18.43;;;12.03;;
9526;SDS011;4802;51.494;6.770;2022-12-18T06:24:37;17.43;;;13.80;;
9526;SDS011;4802;51.494;6.770;2022-12-18T06:27:06;20.33;;;11.00;;
9526;SDS011;4802;51.494;6.770;2022-12-18T06:29:37;13.30;;;9.90;;
9526;SDS011;4802;51.494;6.770;2022-12-18T06:32:12;21.80;;;10.80;;
9526;SDS011;4802;51.494;6.770;2022-12-18T06:34:41;15.30;;;9.80;;
9526;SDS011;4802;51.494;6.770;2022-12-18T06:37:10;10.53;;;9.27;;
9526;SDS011;4802;51.494;6.770;2022-12-18T06:39:40;8.37;;;7.33;;
9526;SDS011;4802;51.494;6.770;2022-12-18T06:42:10;16.87;;;12.57;;
9526;SDS011;4802;51.494;6.770;2022-12-18T06:44:39;10.63;;;8.60;;
9526;SDS011;4802;51.494;6.770;2022-12-18T06:47:10;11.20;;;8.50;;
9526;SDS011;4802;51.494;6.770;2022-12-18T06:49:42;34.90;;;9.50;;
9526;SDS011;4802;51.494;6.770;2022-12-18T06:52:11;12.27;;;9.23;;
9526;SDS011;4802;51.494;6.770;2022-12-18T06:54:52;21.80;;;10.60;;
9526;SDS011;4802;51.494;6.770;2022-12-18T06:57:22;11.07;;;7.87;;
9526;SDS011;4802;51.494;6.770;2022-12-18T06:59:52;10.77;;;9.53;;
9526;SDS011;4802;51.494;6.770;2022-12-18T07:02:22;13.90;;;9.50;;
9526;SDS011;4802;51.494;6.770;2022-12-18T07:04:55;16.73;;;9.23;;
9526;SDS011;4802;51.494;6.770;2022-12-18T07:07:33;9.70;;;8.70;;
9526;SDS011;4802;51.494;6.770;2022-12-18T07:10:02;11.37;;;10.10;;
9526;SDS011;4802;51.494;6.770;2022-12-18T07:12:33;11.47;;;7.10;;
9526;SDS011;4802;51.494;6.770;2022-12-18T07:15:04;11.60;;;9.23;;
9526;SDS011;4802;51.494;6.770;2022-12-18T07:17:33;9.77;;;8.23;;
9526;SDS011;4802;51.494;6.770;2022-12-18T07:20:06;11.03;;;9.83;;
9526;SDS011;4802;51.494;6.770;2022-12-18T07:22:35;8.03;;;7.37;;
9526;SDS011;4802;51.494;6.770;2022-12-18T07:25:06;17.53;;;9.93;;
9526;SDS011;4802;51.494;6.770;2022-12-18T07:27:36;8.87;;;6.13;;
9526;SDS011;4802;51.494;6.770;2022-12-18T07:30:06;13.27;;;9.80;;
9526;SDS011;4802;51.494;6.770;2022-12-18T07:32:35;14.90;;;9.30;;
9526;SDS011;4802;51.494;6.770;2022-12-18T07:35:07;10.10;;;9.20;;
9526;SDS011;4802;51.494;6.770;2022-12-18T07:37:36;12.33;;;8.40;;
9526;SDS011;4802;51.494;6.770;2022-12-18T07:40:06;13.13;;;8.27;;
9526;SDS011;4802;51.494;6.770;2022-12-18T07:42:35;8.77;;;7.67;;
9526;SDS011;4802;51.494;6.770;2022-12-18T07:45:06;8.73;;;7.30;;
9526;SDS011;4802;51.494;6.770;2022-12-18T07:47:37;22.80;;;11.03;;
9526;SDS011;4802;51.494;6.770;2022-12-18T07:50:10;12.10;;;10.70;;
9526;SDS011;4802;51.494;6.770;2022-12-18T07:52:41;26.20;;;10.57;;
9526;SDS011;4802;51.494;6.770;2022-12-18T07:55:10;11.27;;;9.30;;
9526;SDS011;4802;51.494;6.770;2022-12-18T07:57:39;16.40;;;9.70;;
9526;SDS011;4802;51.494;6.770;2022-12-18T08:00:19;9.77;;;8.83;;
9526;SDS011;4802;51.494;6.770;2022-12-18T08:02:49;23.43;;;12.83;;
9526;SDS011;4802;51.494;6.770;2022-12-18T08:05:20;19.47;;;9.97;;
9526;SDS011;4802;51.494;6.770;2022-12-18T08:07:50;13.53;;;9.83;;
9526;SDS011;4802;51.494;6.770;2022-12-18T08:10:20;11.17;;;9.40;;
9526;SDS011;4802;51.494;6.770;2022-12-18T08:12:49;12.30;;;8.50;;
9526;SDS011;4802;51.494;6.770;2022-12-18T08:15:26;10.33;;;8.07;;
9526;SDS011;4802;51.494;6.770;2022-12-18T08:17:57;12.43;;;9.57;;
9526;SDS011;4802;51.494;6.770;2022-12-18T08:20:28;13.67;;;12.37;;
9526;SDS011;4802;51.494;6.770;2022-12-18T08:22:57;24.77;;;8.50;;
9526;SDS011;4802;51.494;6.770;2022-12-18T08:25:26;18.53;;;10.27;;
9526;SDS011;4802;51.494;6.770;2022-12-18T08:27:55;12.93;;;9.50;;
9526;SDS011;4802;51.494;6.770;2022-12-18T08:30:25;10.17;;;8.43;;
9526;SDS011;4802;51.494;6.770;2022-12-18T08:32:54;10.97;;;9.27;;
9526;SDS011;4802;51.494;6.770;2022-12-18T08:35:23;9.03;;;8.23;;
9526;SDS011;4802;51.494;6.770;2022-12-18T08:38:00;11.60;;;9.47;;
9526;SDS011;4802;51.494;6.770;2022-12-18T08:40:29;13.53;;;8.87;;
9526;SDS011;4802;51.494;6.770;2022-12-18T08:42:59;11.47;;;9.80;;
9526;SDS011;4802;51.494;6.770;2022-12-18T08:45:45;14.27;;;8.67;;
9526;SDS011;4802;51.494;6.770;2022-12-18T08:48:15;15.90;;;12.93;;
9526;SDS011;4802;51.494;6.770;2022-12-18T08:50:53;8.03;;;7.10;;
9526;SDS011;4802;51.494;6.770;2022-12-18T08:53:24;18.77;;;9.27;;
9526;SDS011;4802;51.494;6.770;2022-12-18T08:55:58;7.40;;;6.90;;
9526;SDS011;4802;51.494;6.770;2022-12-18T08:58:27;10.77;;;8.47;;
9526;SDS011;4802;51.494;6.770;2022-12-18T09:00:59;8.97;;;7.13;;
9526;SDS011;4802;51.494;6.770;2022-12-18T09:03:31;14.77;;;10.80;;
9526;SDS011;4802;51.494;6.770;2022-12-18T09:06:01;13.03;;;9.73;;
9526;SDS011;4802;51.494;6.770;2022-12-18T09:08:35;9.77;;;8.80;;
9526;SDS011;4802;51.494;6.770;2022-12-18T09:11:21;12.77;;;9.50;;
9526;SDS011;4802;51.494;6.770;2022-12-18T09:13:51;12.37;;;8.73;;
9526;SDS011;4802;51.494;6.770;2022-12-18T09:16:33;24.67;;;10.93;;
9526;SDS011;4802;51.494;6.770;2022-12-18T09:19:10;14.50;;;11.33;;
9526;SDS011;4802;51.494;6.770;2022-12-18T09:21:51;20.03;;;9.00;;
9526;SDS011;4802;51.494;6.770;2022-12-18T09:24:36;16.00;;;10.53;;
9526;SDS011;4802;51.494;6.770;2022-12-18T09:27:15;12.87;;;10.60;;
9526;SDS011;4802;51.494;6.770;2022-12-18T09:29:44;9.60;;;8.13;;
9526;SDS011;4802;51.494;6.770;2022-12-18T09:32:14;8.57;;;7.77;;
9526;SDS011;4802;51.494;6.770;2022-12-18T09:34:48;13.00;;;9.80;;
9526;SDS011;4802;51.494;6.770;2022-12-18T09:37:17;10.73;;;8.57;;
9526;SDS011;4802;51.494;6.770;2022-12-18T09:39:59;21.53;;;10.50;;
9526;SDS011;4802;51.494;6.770;2022-12-18T09:42:30;13.17;;;9.43;;
9526;SDS011;4802;51.494;6.770;2022-12-18T09:45:01;7.60;;;6.83;;
9526;SDS011;4802;51.494;6.770;2022-12-18T09:47:33;15.63;;;10.87;;
9526;SDS011;4802;51.494;6.770;2022-12-18T09:50:06;9.27;;;7.87;;
9526;SDS011;4802;51.494;6.770;2022-12-18T09:52:46;8.90;;;7.20;;
9526;SDS011;4802;51.494;6.770;2022-12-18T09:55:24;7.57;;;6.93;;
9526;SDS011;4802;51.494;6.770;2022-12-18T09:58:15;10.63;;;9.77;;
9526;SDS011;4802;51.494;6.770;2022-12-18T10:00:47;7.97;;;7.30;;
9526;SDS011;4802;51.494;6.770;2022-12-18T10:03:25;8.90;;;7.20;;
9526;SDS011;4802;51.494;6.770;2022-12-18T10:05:58;4.67;;;4.33;;
9526;SDS011;4802;51.494;6.770;2022-12-18T10:08:33;11.57;;;5.90;;
9526;SDS011;4802;51.494;6.770;2022-12-18T10:16:59;5.17;;;4.83;;
9526;SDS011;4802;51.494;6.770;2022-12-18T10:19:39;10.43;;;6.90;;
9526;SDS011;4802;51.494;6.770;2022-12-18T10:22:29;7.90;;;5.50;;
9526;SDS011;4802;51.494;6.770;2022-12-18T10:25:13;5.20;;;4.90;;
9526;SDS011;4802;51.494;6.770;2022-12-18T10:27:45;6.33;;;4.97;;
9526;SDS011;4802;51.494;6.770;2022-12-18T10:30:22;11.97;;;5.07;;
9526;SDS011;4802;51.494;6.770;2022-12-18T10:33:08;6.50;;;5.87;;
9526;SDS011;4802;51.494;6.770;2022-12-18T10:35:45;6.63;;;6.07;;
9526;SDS011;4802;51.494;6.770;2022-12-18T10:38:23;12.63;;;9.50;;
9526;SDS011;4802;51.494;6.770;2022-12-18T10:40:58;7.73;;;6.97;;
9526;SDS011;4802;51.494;6.770;2022-12-18T10:43:28;25.53;;;6.83;;
9526;SDS011;4802;51.494;6.770;2022-12-18T10:49:00;16.90;;;9.30;;
9526;SDS011;4802;51.494;6.770;2022-12-18T10:51:33;15.53;;;5.73;;
9526;SDS011;4802;51.494;6.770;2022-12-18T10:54:13;5.40;;;3.63;;
9526;SDS011;4802;51.494;6.770;2022-12-18T10:56:44;4.27;;;4.00;;
9526;SDS011;4802;51.494;6.770;2022-12-18T10:59:30;6.93;;;5.00;;
9526;SDS011;4802;51.494;6.770;2022-12-18T11:02:26;3.43;;;3.23;;
9526;SDS011;4802;51.494;6.770;2022-12-18T11:08:20;4.40;;;4.10;;
9526;SDS011;4802;51.494;6.770;2022-12-18T11:10:56;7.63;;;3.43;;
9526;SDS011;4802;51.494;6.770;2022-12-18T11:13:39;2.80;;;2.70;;
9526;SDS011;4802;51.494;6.770;2022-12-18T11:16:30;1.50;;;1.40;;
9526;SDS011;4802;51.494;6.770;2022-12-18T11:19:12;13.07;;;3.13;;
9526;SDS011;4802;51.494;6.770;2022-12-18T11:21:57;3.07;;;2.30;;
9526;SDS011;4802;51.494;6.770;2022-12-18T11:27:46;2.57;;;2.13;;
9526;SDS011;4802;51.494;6.770;2022-12-18T11:30:43;3.37;;;3.20;;
9526;SDS011;4802;51.494;6.770;2022-12-18T11:33:28;9.63;;;3.87;;
9526;SDS011;4802;51.494;6.770;2022-12-18T11:36:33;2.23;;;2.23;;
9526;SDS011;4802;51.494;6.770;2022-12-18T11:39:24;3.33;;;3.13;;
9526;SDS011;4802;51.494;6.770;2022-12-18T11:42:24;15.53;;;3.30;;
9526;SDS011;4802;51.494;6.770;2022-12-18T11:48:04;2.73;;;2.03;;
9526;SDS011;4802;51.494;6.770;2022-12-18T11:50:42;2.10;;;1.97;;
9526;SDS011;4802;51.494;6.770;2022-12-18T11:53:17;3.00;;;2.87;;
9526;SDS011;4802;51.494;6.770;2022-12-18T11:55:58;11.20;;;3.03;;
9526;SDS011;4802;51.494;6.770;2022-12-18T11:59:02;2.27;;;2.17;;
9526;SDS011;4802;51.494;6.770;2022-12-18T12:02:04;3.90;;;3.70;;
9526;SDS011;4802;51.494;6.770;2022-12-18T12:08:43;2.23;;;2.23;;
9526;SDS011;4802;51.494;6.770;2022-12-18T12:11:32;3.00;;;2.80;;
9526;SDS011;4802;51.494;6.770;2022-12-18T12:17:08;3.53;;;3.17;;
9526;SDS011;4802;51.494;6.770;2022-12-18T12:20:07;4.87;;;3.83;;
9526;SDS011;4802;51.494;6.770;2022-12-18T12:22:46;2.87;;;2.77;;
9526;SDS011;4802;51.494;6.770;2022-12-18T12:29:02;3.03;;;2.93;;
9526;SDS011;4802;51.494;6.770;2022-12-18T12:31:51;3.10;;;2.83;;
9526;SDS011;4802;51.494;6.770;2022-12-18T12:34:39;5.23;;;3.30;;
9526;SDS011;4802;51.494;6.770;2022-12-18T12:37:29;7.33;;;4.23;;
9526;SDS011;4802;51.494;6.770;2022-12-18T12:40:12;2.07;;;1.97;;
9526;SDS011;4802;51.494;6.770;2022-12-18T12:43:27;3.37;;;1.93;;
9526;SDS011;4802;51.494;6.770;2022-12-18T12:46:11;1.67;;;1.67;;
9526;SDS011;4802;51.494;6.770;2022-12-18T12:49:09;2.97;;;2.77;;
9526;SDS011;4802;51.494;6.770;2022-12-18T12:51:43;1.50;;;1.50;;
9526;SDS011;4802;51.494;6.770;2022-12-18T12:54:42;3.13;;;2.90;;
9526;SDS011;4802;51.494;6.770;2022-12-18T12:57:30;1.00;;;1.00;;
9526;SDS011;4802;51.494;6.770;2022-12-18T13:00:16;4.40;;;4.10;;
9526;SDS011;4802;51.494;6.770;2022-12-18T13:44:52;1.47;;;1.47;;
9526;SDS011;4802;51.494;6.770;2022-12-18T13:47:50;2.93;;;2.83;;
9526;SDS011;4802;51.494;6.770;2022-12-18T13:50:52;3.73;;;2.40;;
9526;SDS011;4802;51.494;6.770;2022-12-18T13:53:50;2.07;;;2.07;;
9526;SDS011;4802;51.494;6.770;2022-12-18T13:56:50;2.70;;;2.60;;
9526;SDS011;4802;51.494;6.770;2022-12-18T13:59:46;5.43;;;2.80;;
9526;SDS011;4802;51.494;6.770;2022-12-18T14:44:07;4.30;;;2.83;;
9526;SDS011;4802;51.494;6.770;2022-12-18T14:46:43;3.63;;;3.33;;
9526;SDS011;4802;51.494;6.770;2022-12-18T14:49:24;18.30;;;5.10;;
9526;SDS011;4802;51.494;6.770;2022-12-18T14:51:58;4.93;;;4.47;;
9526;SDS011;4802;51.494;6.770;2022-12-18T14:54:29;4.53;;;3.00;;
9526;SDS011;4802;51.494;6.770;2022-12-18T14:57:14;2.13;;;2.03;;
9526;SDS011;4802;51.494;6.770;2022-12-18T14:59:51;2.73;;;2.10;;
9526;SDS011;4802;51.494;6.770;2022-12-18T15:02:35;3.00;;;2.80;;
9526;SDS011;4802;51.494;6.770;2022-12-18T15:05:15;2.20;;;2.03;;
9526;SDS011;4802;51.494;6.770;2022-12-18T15:07:54;3.23;;;2.90;;
9526;SDS011;4802;51.494;6.770;2022-12-18T15:10:30;8.50;;;3.50;;
9526;SDS011;4802;51.494;6.770;2022-12-18T15:13:19;4.80;;;4.43;;
9526;SDS011;4802;51.494;6.770;2022-12-18T15:15:51;2.27;;;2.17;;
9526;SDS011;4802;51.494;6.770;2022-12-18T15:18:28;5.60;;;4.30;;
9526;SDS011;4802;51.494;6.770;2022-12-18T15:21:06;4.83;;;4.57;;
9526;SDS011;4802;51.494;6.770;2022-12-18T15:23:38;2.70;;;2.60;;
9526;SDS011;4802;51.494;6.770;2022-12-18T15:26:15;2.60;;;2.47;;
9526;SDS011;4802;51.494;6.770;2022-12-18T15:28:59;2.40;;;2.20;;
9526;SDS011;4802;51.494;6.770;2022-12-18T15:31:39;4.77;;;4.27;;
9526;SDS011;4802;51.494;6.770;2022-12-18T15:34:13;2.30;;;2.20;;
9526;SDS011;4802;51.494;6.770;2022-12-18T15:36:42;6.47;;;5.07;;
9526;SDS011;4802;51.494;6.770;2022-12-18T15:39:13;3.23;;;3.13;;
9526;SDS011;4802;51.494;6.770;2022-12-18T15:41:42;9.67;;;5.10;;
9526;SDS011;4802;51.494;6.770;2022-12-18T15:44:46;2.63;;;2.43;;
9526;SDS011;4802;51.494;6.770;2022-12-18T15:47:22;2.93;;;2.83;;
9526;SDS011;4802;51.494;6.770;2022-12-18T15:49:56;7.10;;;4.03;;
9526;SDS011;4802;51.494;6.770;2022-12-18T15:52:25;4.03;;;3.87;;
9526;SDS011;4802;51.494;6.770;2022-12-18T15:54:56;4.83;;;4.40;;
9526;SDS011;4802;51.494;6.770;2022-12-18T15:57:51;8.60;;;5.93;;
9526;SDS011;4802;51.494;6.770;2022-12-18T16:00:22;5.97;;;5.50;;
9526;SDS011;4802;51.494;6.770;2022-12-18T16:03:09;6.20;;;3.97;;
9526;SDS011;4802;51.494;6.770;2022-12-18T16:05:39;6.67;;;5.10;;
9526;SDS011;4802;51.494;6.770;2022-12-18T16:08:13;5.23;;;4.93;;
9526;SDS011;4802;51.494;6.770;2022-12-18T16:10:43;3.43;;;3.23;;
9526;SDS011;4802;51.494;6.770;2022-12-18T16:13:25;3.80;;;3.60;;
9526;SDS011;4802;51.494;6.770;2022-12-18T16:16:00;4.03;;;3.63;;
9526;SDS011;4802;51.494;6.770;2022-12-18T16:18:36;4.87;;;4.67;;
9526;SDS011;4802;51.494;6.770;2022-12-18T16:21:08;9.77;;;6.20;;
9526;SDS011;4802;51.494;6.770;2022-12-18T16:23:40;6.30;;;5.80;;
9526;SDS011;4802;51.494;6.770;2022-12-18T16:26:23;5.90;;;5.30;;
9526;SDS011;4802;51.494;6.770;2022-12-18T16:29:02;4.10;;;3.00;;
9526;SDS011;4802;51.494;6.770;2022-12-18T16:31:35;5.50;;;5.10;;
9526;SDS011;4802;51.494;6.770;2022-12-18T16:40:44;4.93;;;4.00;;
9526;SDS011;4802;51.494;6.770;2022-12-18T16:43:27;4.03;;;3.83;;
9526;SDS011;4802;51.494;6.770;2022-12-18T16:45:58;9.47;;;5.80;;
9526;SDS011;4802;51.494;6.770;2022-12-18T16:48:27;6.10;;;5.70;;
9526;SDS011;4802;51.494;6.770;2022-12-18T16:50:59;9.93;;;5.13;;
9526;SDS011;4802;51.494;6.770;2022-12-18T16:53:29;4.40;;;4.10;;
9526;SDS011;4802;51.494;6.770;2022-12-18T16:59:19;4.77;;;4.57;;
9526;SDS011;4802;51.494;6.770;2022-12-18T17:01:53;7.23;;;5.70;;
9526;SDS011;4802;51.494;6.770;2022-12-18T17:04:24;10.03;;;5.30;;
9526;SDS011;4802;51.494;6.770;2022-12-18T17:06:54;4.07;;;3.70;;
9526;SDS011;4802;51.494;6.770;2022-12-18T17:09:38;14.70;;;6.67;;
9526;SDS011;4802;51.494;6.770;2022-12-18T17:12:20;5.90;;;4.60;;
9526;SDS011;4802;51.494;6.770;2022-12-18T17:15:05;7.57;;;4.73;;
9526;SDS011;4802;51.494;6.770;2022-12-18T17:17:35;14.53;;;6.20;;
9526;SDS011;4802;51.494;6.770;2022-12-18T17:20:05;3.50;;;2.17;;
9526;SDS011;4802;51.494;6.770;2022-12-18T17:22:37;4.70;;;3.60;;
9526;SDS011;4802;51.494;6.770;2022-12-18T17:25:07;6.37;;;4.93;;
9526;SDS011;4802;51.494;6.770;2022-12-18T17:27:37;3.47;;;3.10;;
9526;SDS011;4802;51.494;6.770;2022-12-18T17:30:11;8.03;;;5.20;;
9526;SDS011;4802;51.494;6.770;2022-12-18T17:32:41;9.20;;;4.87;;
9526;SDS011;4802;51.494;6.770;2022-12-18T17:35:11;16.83;;;6.30;;
9526;SDS011;4802;51.494;6.770;2022-12-18T17:37:41;13.43;;;7.23;;
9526;SDS011;4802;51.494;6.770;2022-12-18T17:40:10;6.83;;;4.83;;
9526;SDS011;4802;51.494;6.770;2022-12-18T17:42:41;10.77;;;5.77;;
9526;SDS011;4802;51.494;6.770;2022-12-18T17:45:12;3.43;;;3.33;;
9526;SDS011;4802;51.494;6.770;2022-12-18T17:47:42;5.77;;;5.37;;
9526;SDS011;4802;51.494;6.770;2022-12-18T17:50:12;12.33;;;6.27;;
9526;SDS011;4802;51.494;6.770;2022-12-18T17:53:02;8.40;;;7.70;;
9526;SDS011;4802;51.494;6.770;2022-12-18T17:55:59;8.00;;;6.90;;
9526;SDS011;4802;51.494;6.770;2022-12-18T17:58:56;2.83;;;2.73;;
9526;SDS011;4802;51.494;6.770;2022-12-18T18:04:24;13.53;;;5.60;;
9526;SDS011;4802;51.494;6.770;2022-12-18T18:07:00;8.20;;;7.03;;
9526;SDS011;4802;51.494;6.770;2022-12-18T18:09:41;7.80;;;5.03;;
9526;SDS011;4802;51.494;6.770;2022-12-18T18:12:19;6.10;;;5.47;;
9526;SDS011;4802;51.494;6.770;2022-12-18T18:15:20;8.50;;;7.77;;
9526;SDS011;4802;51.494;6.770;2022-12-18T18:18:16;11.33;;;5.90;;
9526;SDS011;4802;51.494;6.770;2022-12-18T18:27:01;18.83;;;8.40;;
9526;SDS011;4802;51.494;6.770;2022-12-18T18:29:41;14.63;;;4.80;;
9526;SDS011;4802;51.494;6.770;2022-12-18T18:32:13;6.97;;;4.10;;
9526;SDS011;4802;51.494;6.770;2022-12-18T18:35:09;43.13;;;7.50;;
9526;SDS011;4802;51.494;6.770;2022-12-18T18:38:09;15.43;;;7.90;;
9526;SDS011;4802;51.494;6.770;2022-12-18T18:41:14;9.03;;;8.13;;
9526;SDS011;4802;51.494;6.770;2022-12-18T18:47:18;15.80;;;6.37;;
9526;SDS011;4802;51.494;6.770;2022-12-18T18:50:06;6.53;;;5.37;;
9526;SDS011;4802;51.494;6.770;2022-12-18T18:52:52;12.03;;;8.73;;
9526;SDS011;4802;51.494;6.770;2022-12-18T18:55:39;7.53;;;6.37;;
9526;SDS011;4802;51.494;6.770;2022-12-18T18:58:43;10.90;;;7.13;;
9526;SDS011;4802;51.494;6.770;2022-12-18T19:01:15;11.17;;;6.77;;
9526;SDS011;4802;51.494;6.770;2022-12-18T19:03:56;8.83;;;7.73;;
9526;SDS011;4802;51.494;6.770;2022-12-18T19:06:45;10.40;;;8.60;;